sensor_id;sensor_type;location;lat;lon;timestamp;pressure;altitude;pressure_sealevel;temperature;humidity
24892;BME280;12954;50.688;10.908;2023-03-04T00:01:00;96053.34;;;-0.98;64.59
24892;BME280;12954;50.688;10.908;2023-03-04T00:03:28;95996.78;;;-1.25;63.95
24892;BME280;12954;50.688;10.908;2023-03-04T00:05:57;96051.91;;;-0.94;64.54
24892;BME280;12954;50.688;10.908;2023-03-04T00:08:25;95979.84;;;-1.37;64.45
24892;BME280;12954;50.688;10.908;2023-03-04T00:10:54;96053.16;;;-0.90;64.59
24892;BME280;12954;50.688;10.908;2023-03-04T00:13:22;96018.28;;;-1.00;64.32
24892;BME280;12954;50.688;10.908;2023-03-04T00:15:51;95992.31;;;-1.18;64.17
24892;BME280;12954;50.688;10.908;2023-03-04T00:18:21;96047.47;;;-0.87;64.38
24892;BME280;12954;50.688;10.908;2023-03-04T00:20:49;96046.22;;;-0.91;64.25
24892;BME280;12954;50.688;10.908;2023-03-04T00:23:18;96029.94;;;-0.95;64.15
24892;BME280;12954;50.688;10.908;2023-03-04T00:25:46;96048.34;;;-0.80;64.22
24892;BME280;12954;50.688;10.908;2023-03-04T00:28:14;95995.66;;;-1.09;63.80
24892;BME280;12954;50.688;10.908;2023-03-04T00:30:43;96039.69;;;-0.95;63.88
24892;BME280;12954;50.688;10.908;2023-03-04T00:33:11;96012.75;;;-1.05;63.99
24892;BME280;12954;50.688;10.908;2023-03-04T00:35:42;96046.47;;;-0.86;63.98
24892;BME280;12954;50.688;10.908;2023-03-04T00:38:11;96044.66;;;-0.79;63.59
24892;BME280;12954;50.688;10.908;2023-03-04T00:40:39;96044.81;;;-0.87;64.16
24892;BME280;12954;50.688;10.908;2023-03-04T00:43:08;96038.72;;;-0.88;64.19
24892;BME280;12954;50.688;10.908;2023-03-04T00:45:36;96043.03;;;-0.80;63.64
24892;BME280;12954;50.688;10.908;2023-03-04T00:48:05;95985.59;;;-1.21;64.02
24892;BME280;12954;50.688;10.908;2023-03-04T00:50:33;96010.59;;;-0.95;63.78
24892;BME280;12954;50.688;10.908;2023-03-04T00:53:03;96032.03;;;-0.77;63.54
24892;BME280;12954;50.688;10.908;2023-03-04T00:55:31;96035.47;;;-0.83;63.63
24892;BME280;12954;50.688;10.908;2023-03-04T00:58:00;96028.13;;;-0.88;64.30
24892;BME280;12954;50.688;10.908;2023-03-04T01:00:28;96031.41;;;-0.79;63.64
24892;BME280;12954;50.688;10.908;2023-03-04T01:02:57;96021.22;;;-0.82;64.03
24892;BME280;12954;50.688;10.908;2023-03-04T01:05:28;96024.72;;;-0.75;63.77
24892;BME280;12954;50.688;10.908;2023-03-04T01:07:57;96026.06;;;-0.86;64.12
24892;BME280;12954;50.688;10.908;2023-03-04T01:10:27;96022.25;;;-0.83;63.52
24892;BME280;12954;50.688;10.908;2023-03-04T01:12:56;96000.38;;;-0.92;63.82
24892;BME280;12954;50.688;10.908;2023-03-04T01:15:24;95990.22;;;-0.95;63.77
24892;BME280;12954;50.688;10.908;2023-03-04T01:17:53;96005.97;;;-0.74;63.52
24892;BME280;12954;50.688;10.908;2023-03-04T01:20:21;96001.06;;;-0.77;63.59
24892;BME280;12954;50.688;10.908;2023-03-04T01:22:50;95992.94;;;-0.75;63.61
24892;BME280;12954;50.688;10.908;2023-03-04T01:25:18;95994.97;;;-0.77;63.47
24892;BME280;12954;50.688;10.908;2023-03-04T01:27:48;95992.53;;;-0.72;63.28
24892;BME280;12954;50.688;10.908;2023-03-04T01:30:17;95988.84;;;-0.71;63.26
24892;BME280;12954;50.688;10.908;2023-03-04T01:32:45;95991.09;;;-0.68;63.29
24892;BME280;12954;50.688;10.908;2023-03-04T01:35:14;95986.59;;;-0.74;63.39
24892;BME280;12954;50.688;10.908;2023-03-04T01:37:42;95948.50;;;-0.86;62.85
24892;BME280;12954;50.688;10.908;2023-03-04T01:40:12;95971.25;;;-0.92;63.13
24892;BME280;12954;50.688;10.908;2023-03-04T01:42:42;95970.31;;;-0.71;63.20
24892;BME280;12954;50.688;10.908;2023-03-04T01:45:14;95967.03;;;-0.73;63.21
24892;BME280;12954;50.688;10.908;2023-03-04T01:47:46;95925.84;;;-0.95;63.13
24892;BME280;12954;50.688;10.908;2023-03-04T01:50:19;95959.09;;;-0.73;63.01
24892;BME280;12954;50.688;10.908;2023-03-04T01:52:48;95959.50;;;-0.76;63.07
24892;BME280;12954;50.688;10.908;2023-03-04T01:55:18;95956.63;;;-0.81;63.29
24892;BME280;12954;50.688;10.908;2023-03-04T01:57:48;95918.28;;;-1.05;63.20
24892;BME280;12954;50.688;10.908;2023-03-04T02:00:27;95951.75;;;-0.78;63.40
24892;BME280;12954;50.688;10.908;2023-03-04T02:02:59;95950.16;;;-0.66;62.75
24892;BME280;12954;50.688;10.908;2023-03-04T02:05:29;95926.91;;;-0.83;62.52
24892;BME280;12954;50.688;10.908;2023-03-04T02:07:58;95900.97;;;-1.07;62.71
24892;BME280;12954;50.688;10.908;2023-03-04T02:10:27;95951.34;;;-0.81;63.11
24892;BME280;12954;50.688;10.908;2023-03-04T02:12:56;95946.03;;;-0.81;63.07
24892;BME280;12954;50.688;10.908;2023-03-04T02:15:27;95936.47;;;-0.82;63.41
24892;BME280;12954;50.688;10.908;2023-03-04T02:17:56;95888.09;;;-1.17;63.23
24892;BME280;12954;50.688;10.908;2023-03-04T02:20:34;95934.03;;;-0.71;62.54
24892;BME280;12954;50.688;10.908;2023-03-04T02:23:14;95938.72;;;-0.79;62.88
24892;BME280;12954;50.688;10.908;2023-03-04T02:25:46;95944.38;;;-0.89;63.33
24892;BME280;12954;50.688;10.908;2023-03-04T02:28:18;95935.03;;;-0.85;63.01
24892;BME280;12954;50.688;10.908;2023-03-04T02:30:46;95902.03;;;-0.95;62.80
24892;BME280;12954;50.688;10.908;2023-03-04T02:33:16;95935.06;;;-0.78;62.90
24892;BME280;12954;50.688;10.908;2023-03-04T02:35:45;95929.75;;;-0.78;62.64
24892;BME280;12954;50.688;10.908;2023-03-04T02:38:14;95932.22;;;-0.70;62.37
24892;BME280;12954;50.688;10.908;2023-03-04T02:40:44;95880.19;;;-1.10;62.41
24892;BME280;12954;50.688;10.908;2023-03-04T02:43:14;95920.75;;;-0.90;62.81
24892;BME280;12954;50.688;10.908;2023-03-04T02:45:46;95910.19;;;-0.84;62.48
24892;BME280;12954;50.688;10.908;2023-03-04T02:48:17;95934.25;;;-0.72;62.45
24892;BME280;12954;50.688;10.908;2023-03-04T02:50:47;95899.38;;;-0.82;61.98
24892;BME280;12954;50.688;10.908;2023-03-04T02:53:17;95928.56;;;-0.69;62.32
24892;BME280;12954;50.688;10.908;2023-03-04T02:55:46;95923.25;;;-0.69;62.30
24892;BME280;12954;50.688;10.908;2023-03-04T02:58:15;95920.59;;;-0.69;62.26
24892;BME280;12954;50.688;10.908;2023-03-04T03:00:45;95921.81;;;-0.65;62.52
24892;BME280;12954;50.688;10.908;2023-03-04T03:03:14;95829.09;;;-1.04;61.36
24892;BME280;12954;50.688;10.908;2023-03-04T03:05:43;95900.22;;;-0.75;61.74
24892;BME280;12954;50.688;10.908;2023-03-04T03:08:11;95871.03;;;-1.08;61.88
24892;BME280;12954;50.688;10.908;2023-03-04T03:10:40;95923.66;;;-0.72;62.17
24892;BME280;12954;50.688;10.908;2023-03-04T03:13:08;95874.50;;;-0.94;62.22
24892;BME280;12954;50.688;10.908;2023-03-04T03:15:36;95898.38;;;-0.68;61.23
24892;BME280;12954;50.688;10.908;2023-03-04T03:18:10;95899.19;;;-0.74;61.70
24892;BME280;12954;50.688;10.908;2023-03-04T03:20:38;95906.13;;;-0.73;61.50
24892;BME280;12954;50.688;10.908;2023-03-04T03:23:07;95919.97;;;-0.71;61.63
24892;BME280;12954;50.688;10.908;2023-03-04T03:25:36;95903.69;;;-0.81;61.77
24892;BME280;12954;50.688;10.908;2023-03-04T03:28:04;95907.78;;;-0.66;61.37
24892;BME280;12954;50.688;10.908;2023-03-04T03:30:33;95894.94;;;-0.75;61.23
24892;BME280;12954;50.688;10.908;2023-03-04T03:33:01;95910.22;;;-0.77;61.21
24892;BME280;12954;50.688;10.908;2023-03-04T03:35:31;95899.63;;;-0.77;61.67
24892;BME280;12954;50.688;10.908;2023-03-04T03:38:00;95831.31;;;-1.14;61.31
24892;BME280;12954;50.688;10.908;2023-03-04T03:40:28;95906.53;;;-0.76;60.97
24892;BME280;12954;50.688;10.908;2023-03-04T03:42:56;95899.19;;;-0.87;61.23
24892;BME280;12954;50.688;10.908;2023-03-04T03:45:25;95875.13;;;-0.99;61.28
24892;BME280;12954;50.688;10.908;2023-03-04T03:47:53;95902.88;;;-0.69;60.62
24892;BME280;12954;50.688;10.908;2023-03-04T03:50:21;95889.22;;;-0.79;61.00
24892;BME280;12954;50.688;10.908;2023-03-04T03:52:51;95903.69;;;-0.81;61.69
24892;BME280;12954;50.688;10.908;2023-03-04T03:55:19;95858.59;;;-1.07;61.37
24892;BME280;12954;50.688;10.908;2023-03-04T03:57:48;95828.25;;;-1.11;61.23
24892;BME280;12954;50.688;10.908;2023-03-04T04:00:17;95898.19;;;-0.73;61.40
24892;BME280;12954;50.688;10.908;2023-03-04T04:02:46;95899.41;;;-0.76;61.70
24892;BME280;12954;50.688;10.908;2023-03-04T04:05:15;95890.22;;;-0.73;61.29
24892;BME280;12954;50.688;10.908;2023-03-04T04:07:43;95895.13;;;-0.70;61.64
24892;BME280;12954;50.688;10.908;2023-03-04T04:10:13;95891.25;;;-0.74;61.60
24892;BME280;12954;50.688;10.908;2023-03-04T04:12:41;95895.53;;;-0.67;61.40
24892;BME280;12954;50.688;10.908;2023-03-04T04:15:10;95867.00;;;-0.84;61.40
24892;BME280;12954;50.688;10.908;2023-03-04T04:17:39;95847.06;;;-0.80;60.88
24892;BME280;12954;50.688;10.908;2023-03-04T04:20:08;95896.34;;;-0.60;61.30
24892;BME280;12954;50.688;10.908;2023-03-04T04:22:37;95898.00;;;-0.58;60.92
24892;BME280;12954;50.688;10.908;2023-03-04T04:25:06;95888.63;;;-0.61;61.22
24892;BME280;12954;50.688;10.908;2023-03-04T04:27:38;95897.16;;;-0.59;61.23
24892;BME280;12954;50.688;10.908;2023-03-04T04:30:07;95892.69;;;-0.65;61.25
24892;BME280;12954;50.688;10.908;2023-03-04T04:32:35;95905.53;;;-0.62;61.24
24892;BME280;12954;50.688;10.908;2023-03-04T04:35:05;95873.09;;;-0.90;61.24
24892;BME280;12954;50.688;10.908;2023-03-04T04:37:33;95899.22;;;-0.61;61.45
24892;BME280;12954;50.688;10.908;2023-03-04T04:40:02;95880.25;;;-0.71;61.37
24892;BME280;12954;50.688;10.908;2023-03-04T04:42:30;95908.59;;;-0.52;61.09
24892;BME280;12954;50.688;10.908;2023-03-04T04:45:00;95859.28;;;-0.66;60.89
24892;BME280;12954;50.688;10.908;2023-03-04T04:47:29;95907.19;;;-0.35;60.29
24892;BME280;12954;50.688;10.908;2023-03-04T04:49:57;95900.84;;;-0.47;60.99
24892;BME280;12954;50.688;10.908;2023-03-04T04:52:25;95902.50;;;-0.46;60.74
24892;BME280;12954;50.688;10.908;2023-03-04T04:54:54;95905.75;;;-0.50;60.84
24892;BME280;12954;50.688;10.908;2023-03-04T04:57:22;95905.75;;;-0.44;60.89
24892;BME280;12954;50.688;10.908;2023-03-04T04:59:51;95852.72;;;-0.96;60.74
24892;BME280;12954;50.688;10.908;2023-03-04T05:02:21;95900.66;;;-0.52;60.68
24892;BME280;12954;50.688;10.908;2023-03-04T05:04:49;95876.19;;;-0.67;61.22
24892;BME280;12954;50.688;10.908;2023-03-04T05:07:18;95882.06;;;-0.91;61.09
24892;BME280;12954;50.688;10.908;2023-03-04T05:09:47;95905.34;;;-0.47;60.99
24892;BME280;12954;50.688;10.908;2023-03-04T05:12:15;95900.44;;;-0.44;61.02
24892;BME280;12954;50.688;10.908;2023-03-04T05:14:43;95854.38;;;-0.82;60.93
24892;BME280;12954;50.688;10.908;2023-03-04T05:17:11;95903.50;;;-0.47;60.68
24892;BME280;12954;50.688;10.908;2023-03-04T05:19:41;95891.06;;;-0.66;61.23
24892;BME280;12954;50.688;10.908;2023-03-04T05:22:10;95835.19;;;-0.97;61.14
24892;BME280;12954;50.688;10.908;2023-03-04T05:24:38;95895.16;;;-0.57;61.20
24892;BME280;12954;50.688;10.908;2023-03-04T05:27:06;95895.97;;;-0.50;60.62
24892;BME280;12954;50.688;10.908;2023-03-04T05:29:35;95904.50;;;-0.61;61.27
24892;BME280;12954;50.688;10.908;2023-03-04T05:32:04;95824.63;;;-1.04;60.92
24892;BME280;12954;50.688;10.908;2023-03-04T05:34:32;95900.47;;;-0.57;61.25
24892;BME280;12954;50.688;10.908;2023-03-04T05:37:02;95807.47;;;-1.14;61.33
24892;BME280;12954;50.688;10.908;2023-03-04T05:39:30;95857.00;;;-0.82;61.07
24892;BME280;12954;50.688;10.908;2023-03-04T05:41:59;95904.13;;;-0.38;60.64
24892;BME280;12954;50.688;10.908;2023-03-04T05:44:27;95904.94;;;-0.51;61.05
24892;BME280;12954;50.688;10.908;2023-03-04T05:46:55;95907.38;;;-0.56;61.00
24892;BME280;12954;50.688;10.908;2023-03-04T05:49:24;95881.06;;;-0.71;61.16
24892;BME280;12954;50.688;10.908;2023-03-04T05:51:52;95904.94;;;-0.57;61.04
24892;BME280;12954;50.688;10.908;2023-03-04T05:54:22;95909.00;;;-0.62;61.48
24892;BME280;12954;50.688;10.908;2023-03-04T05:56:51;95856.19;;;-0.83;60.96
24892;BME280;12954;50.688;10.908;2023-03-04T05:59:20;95905.75;;;-0.57;61.11
24892;BME280;12954;50.688;10.908;2023-03-04T06:01:49;95817.66;;;-1.25;61.22
24892;BME280;12954;50.688;10.908;2023-03-04T06:04:18;95899.03;;;-0.66;60.97
24892;BME280;12954;50.688;10.908;2023-03-04T06:06:46;95906.34;;;-0.55;61.26
24892;BME280;12954;50.688;10.908;2023-03-04T06:09:15;95894.13;;;-0.69;61.19
24892;BME280;12954;50.688;10.908;2023-03-04T06:11:45;95907.19;;;-0.54;61.28
24892;BME280;12954;50.688;10.908;2023-03-04T06:14:13;95913.50;;;-0.36;60.62
24892;BME280;12954;50.688;10.908;2023-03-04T06:16:42;95920.22;;;-0.40;60.97
24892;BME280;12954;50.688;10.908;2023-03-04T06:19:10;95888.22;;;-0.58;60.74
24892;BME280;12954;50.688;10.908;2023-03-04T06:21:40;95916.75;;;-0.53;61.11
24892;BME280;12954;50.688;10.908;2023-03-04T06:24:10;95907.38;;;-0.56;61.27
24892;BME280;12954;50.688;10.908;2023-03-04T06:26:38;95823.78;;;-1.11;61.14
24892;BME280;12954;50.688;10.908;2023-03-04T06:29:09;95846.19;;;-0.94;60.91
24892;BME280;12954;50.688;10.908;2023-03-04T06:31:37;95920.84;;;-0.38;61.34
24892;BME280;12954;50.688;10.908;2023-03-04T06:34:07;95923.69;;;-0.33;60.80
24892;BME280;12954;50.688;10.908;2023-03-04T06:36:36;95930.63;;;-0.45;61.28
24892;BME280;12954;50.688;10.908;2023-03-04T06:39:05;95937.38;;;-0.42;61.65
24892;BME280;12954;50.688;10.908;2023-03-04T06:41:34;95892.06;;;-0.67;61.45
24892;BME280;12954;50.688;10.908;2023-03-04T06:44:03;95906.78;;;-0.45;60.95
24892;BME280;12954;50.688;10.908;2023-03-04T06:46:34;95895.94;;;-0.56;61.23
24892;BME280;12954;50.688;10.908;2023-03-04T06:49:03;95934.50;;;-0.21;61.34
24892;BME280;12954;50.688;10.908;2023-03-04T06:51:31;95938.78;;;-0.27;61.35
24892;BME280;12954;50.688;10.908;2023-03-04T06:53:59;95938.59;;;-0.25;61.51
24892;BME280;12954;50.688;10.908;2023-03-04T06:56:28;95913.50;;;-0.42;61.31
24892;BME280;12954;50.688;10.908;2023-03-04T06:58:56;95944.91;;;-0.13;61.01
24892;BME280;12954;50.688;10.908;2023-03-04T07:01:26;95842.75;;;-0.81;61.28
24892;BME280;12954;50.688;10.908;2023-03-04T07:03:56;95920.03;;;-0.45;61.09
24892;BME280;12954;50.688;10.908;2023-03-04T07:06:26;95910.66;;;-0.54;61.21
24892;BME280;12954;50.688;10.908;2023-03-04T07:08:55;95942.88;;;-0.18;61.04
24892;BME280;12954;50.688;10.908;2023-03-04T07:11:24;95898.03;;;-0.45;61.26
24892;BME280;12954;50.688;10.908;2023-03-04T07:13:53;95936.75;;;-0.12;61.17
24892;BME280;12954;50.688;10.908;2023-03-04T07:16:22;95914.31;;;-0.29;61.27
24892;BME280;12954;50.688;10.908;2023-03-04T07:18:50;95873.75;;;-0.42;60.45
24892;BME280;12954;50.688;10.908;2023-03-04T07:21:20;95941.66;;;0.05;60.85
24892;BME280;12954;50.688;10.908;2023-03-04T07:23:49;95899.03;;;-0.27;60.96
24892;BME280;12954;50.688;10.908;2023-03-04T07:26:17;95940.22;;;0.02;61.20
24892;BME280;12954;50.688;10.908;2023-03-04T07:28:46;95933.88;;;-0.04;60.99
24892;BME280;12954;50.688;10.908;2023-03-04T07:31:20;95896.78;;;-0.17;60.85
24892;BME280;12954;50.688;10.908;2023-03-04T07:33:49;95913.28;;;-0.08;60.58
24892;BME280;12954;50.688;10.908;2023-03-04T07:36:17;95946.72;;;0.13;60.59
24892;BME280;12954;50.688;10.908;2023-03-04T07:38:49;95951.03;;;0.14;60.55
24892;BME280;12954;50.688;10.908;2023-03-04T07:41:17;95970.41;;;0.08;60.93
24892;BME280;12954;50.688;10.908;2023-03-04T07:43:46;95936.75;;;-0.05;60.97
24892;BME280;12954;50.688;10.908;2023-03-04T07:46:15;95956.34;;;0.14;60.79
24892;BME280;12954;50.688;10.908;2023-03-04T07:48:44;95958.78;;;0.22;60.87
24892;BME280;12954;50.688;10.908;2023-03-04T07:51:14;95955.91;;;0.23;60.67
24892;BME280;12954;50.688;10.908;2023-03-04T07:53:46;95953.88;;;0.25;60.62
24892;BME280;12954;50.688;10.908;2023-03-04T07:56:18;95935.72;;;0.16;60.31
24892;BME280;12954;50.688;10.908;2023-03-04T07:58:47;95959.78;;;0.27;60.60
24892;BME280;12954;50.688;10.908;2023-03-04T08:01:19;95962.22;;;0.29;60.64
24892;BME280;12954;50.688;10.908;2023-03-04T08:03:48;95960.78;;;0.33;60.79
24892;BME280;12954;50.688;10.908;2023-03-04T08:06:18;95957.31;;;0.39;60.74
24892;BME280;12954;50.688;10.908;2023-03-04T08:08:47;95929.38;;;0.30;60.75
24892;BME280;12954;50.688;10.908;2023-03-04T08:11:19;95926.88;;;0.35;60.66
24892;BME280;12954;50.688;10.908;2023-03-04T08:13:48;95953.19;;;0.63;60.35
24892;BME280;12954;50.688;10.908;2023-03-04T08:16:17;95927.13;;;0.27;59.99
24892;BME280;12954;50.688;10.908;2023-03-04T08:18:49;95959.09;;;0.58;60.01
24892;BME280;12954;50.688;10.908;2023-03-04T08:21:19;95962.38;;;0.47;60.07
24892;BME280;12954;50.688;10.908;2023-03-04T08:23:49;95932.25;;;0.22;60.27
24892;BME280;12954;50.688;10.908;2023-03-04T08:26:22;95954.03;;;0.43;60.35
24892;BME280;12954;50.688;10.908;2023-03-04T08:28:52;95952.59;;;0.54;59.84
24892;BME280;12954;50.688;10.908;2023-03-04T08:31:21;95938.91;;;0.57;59.52
24892;BME280;12954;50.688;10.908;2023-03-04T08:33:50;95945.03;;;0.51;59.82
24892;BME280;12954;50.688;10.908;2023-03-04T08:36:19;95943.38;;;0.57;59.84
24892;BME280;12954;50.688;10.908;2023-03-04T08:38:47;95948.88;;;0.55;59.83
24892;BME280;12954;50.688;10.908;2023-03-04T08:41:16;95933.84;;;0.42;60.05
24892;BME280;12954;50.688;10.908;2023-03-04T08:43:46;95948.06;;;0.61;60.07
24892;BME280;12954;50.688;10.908;2023-03-04T08:46:14;95936.66;;;0.54;59.79
24892;BME280;12954;50.688;10.908;2023-03-04T08:48:42;95918.94;;;0.35;59.54
24892;BME280;12954;50.688;10.908;2023-03-04T08:51:13;95929.13;;;0.38;59.97
24892;BME280;12954;50.688;10.908;2023-03-04T08:53:43;95839.28;;;-0.16;59.92
24892;BME280;12954;50.688;10.908;2023-03-04T08:56:12;95930.97;;;0.44;60.22
24892;BME280;12954;50.688;10.908;2023-03-04T08:58:40;95951.13;;;0.58;60.16
24892;BME280;12954;50.688;10.908;2023-03-04T09:01:12;95921.94;;;0.58;59.50
24892;BME280;12954;50.688;10.908;2023-03-04T09:03:41;95954.19;;;0.55;60.11
24892;BME280;12954;50.688;10.908;2023-03-04T09:06:13;95941.56;;;0.50;60.19
24892;BME280;12954;50.688;10.908;2023-03-04T09:08:42;95943.56;;;0.68;60.14
24892;BME280;12954;50.688;10.908;2023-03-04T09:11:11;95944.56;;;0.74;59.99
24892;BME280;12954;50.688;10.908;2023-03-04T09:13:40;95926.03;;;0.61;60.06
24892;BME280;12954;50.688;10.908;2023-03-04T09:16:11;95939.88;;;0.69;60.16
24892;BME280;12954;50.688;10.908;2023-03-04T09:18:40;95850.00;;;0.22;59.95
24892;BME280;12954;50.688;10.908;2023-03-04T09:21:09;95843.72;;;0.10;60.04
24892;BME280;12954;50.688;10.908;2023-03-04T09:23:38;95908.22;;;0.68;59.84
24892;BME280;12954;50.688;10.908;2023-03-04T09:26:15;95947.19;;;0.87;59.96
24892;BME280;12954;50.688;10.908;2023-03-04T09:28:44;95944.13;;;0.83;59.97
24892;BME280;12954;50.688;10.908;2023-03-04T09:31:14;95893.97;;;0.56;59.85
24892;BME280;12954;50.688;10.908;2023-03-04T09:33:42;95899.44;;;0.67;59.92
24892;BME280;12954;50.688;10.908;2023-03-04T09:36:12;95936.09;;;0.96;60.02
24892;BME280;12954;50.688;10.908;2023-03-04T09:38:41;95902.25;;;0.79;59.77
24892;BME280;12954;50.688;10.908;2023-03-04T09:41:15;95940.09;;;1.19;59.51
24892;BME280;12954;50.688;10.908;2023-03-04T09:43:43;95932.72;;;1.21;59.26
24892;BME280;12954;50.688;10.908;2023-03-04T09:46:14;95931.31;;;1.12;59.59
24892;BME280;12954;50.688;10.908;2023-03-04T09:48:44;95918.00;;;1.18;59.71
24892;BME280;12954;50.688;10.908;2023-03-04T09:51:18;95928.19;;;1.28;59.63
24892;BME280;12954;50.688;10.908;2023-03-04T09:53:48;95922.78;;;1.41;59.20
24892;BME280;12954;50.688;10.908;2023-03-04T09:56:20;95930.88;;;1.52;58.43
24892;BME280;12954;50.688;10.908;2023-03-04T09:58:51;95920.38;;;1.33;59.03
24892;BME280;12954;50.688;10.908;2023-03-04T10:01:25;95925.19;;;1.49;59.14
24892;BME280;12954;50.688;10.908;2023-03-04T10:03:58;95923.88;;;1.58;58.48
24892;BME280;12954;50.688;10.908;2023-03-04T10:06:30;95921.84;;;1.60;58.62
24892;BME280;12954;50.688;10.908;2023-03-04T10:08:59;95916.91;;;1.63;57.96
24892;BME280;12954;50.688;10.908;2023-03-04T10:11:29;95921.56;;;1.68;57.79
24892;BME280;12954;50.688;10.908;2023-03-04T10:14:01;95922.50;;;1.87;57.94
24892;BME280;12954;50.688;10.908;2023-03-04T10:16:33;95907.84;;;1.71;58.16
24892;BME280;12954;50.688;10.908;2023-03-04T10:19:13;95925.75;;;1.89;57.73
24892;BME280;12954;50.688;10.908;2023-03-04T10:21:46;95922.06;;;1.83;57.68
24892;BME280;12954;50.688;10.908;2023-03-04T10:24:16;95924.16;;;1.81;57.53
24892;BME280;12954;50.688;10.908;2023-03-04T10:26:45;95926.47;;;1.71;58.05
24892;BME280;12954;50.688;10.908;2023-03-04T10:29:14;95925.38;;;1.79;58.34
24892;BME280;12954;50.688;10.908;2023-03-04T10:31:45;95922.91;;;1.84;58.04
24892;BME280;12954;50.688;10.908;2023-03-04T10:34:13;95922.81;;;1.97;57.45
24892;BME280;12954;50.688;10.908;2023-03-04T10:36:44;95930.69;;;1.85;57.16
24892;BME280;12954;50.688;10.908;2023-03-04T10:39:17;95927.59;;;1.88;57.65
24892;BME280;12954;50.688;10.908;2023-03-04T10:41:52;95928.19;;;1.90;57.77
24892;BME280;12954;50.688;10.908;2023-03-04T10:44:21;95924.22;;;1.99;57.37
24892;BME280;12954;50.688;10.908;2023-03-04T10:46:52;95909.88;;;2.00;57.18
24892;BME280;12954;50.688;10.908;2023-03-04T10:49:20;95913.84;;;1.91;57.72
24892;BME280;12954;50.688;10.908;2023-03-04T10:51:50;95909.31;;;1.98;57.88
24892;BME280;12954;50.688;10.908;2023-03-04T10:54:23;95898.81;;;2.03;57.78
24892;BME280;12954;50.688;10.908;2023-03-04T10:56:53;95900.59;;;2.09;57.95
24892;BME280;12954;50.688;10.908;2023-03-04T10:59:32;95902.91;;;2.24;57.79
24892;BME280;12954;50.688;10.908;2023-03-04T11:02:12;95894.50;;;2.27;58.01
24892;BME280;12954;50.688;10.908;2023-03-04T11:04:41;95894.56;;;2.39;57.29
24892;BME280;12954;50.688;10.908;2023-03-04T11:07:09;95887.94;;;2.48;57.20
24892;BME280;12954;50.688;10.908;2023-03-04T11:09:37;95884.69;;;2.46;57.61
24892;BME280;12954;50.688;10.908;2023-03-04T11:12:09;95876.03;;;2.50;57.88
24892;BME280;12954;50.688;10.908;2023-03-04T11:14:39;95875.50;;;2.60;57.65
24892;BME280;12954;50.688;10.908;2023-03-04T11:17:20;95878.31;;;2.65;57.15
24892;BME280;12954;50.688;10.908;2023-03-04T11:19:51;95878.31;;;2.65;57.47
24892;BME280;12954;50.688;10.908;2023-03-04T11:22:21;95880.22;;;2.76;57.34
24892;BME280;12954;50.688;10.908;2023-03-04T11:24:54;95877.97;;;2.91;56.45
24892;BME280;12954;50.688;10.908;2023-03-04T11:27:24;95869.56;;;2.76;56.92
24892;BME280;12954;50.688;10.908;2023-03-04T11:29:57;95880.34;;;2.81;57.25
24892;BME280;12954;50.688;10.908;2023-03-04T11:32:28;95881.84;;;2.77;56.84
24892;BME280;12954;50.688;10.908;2023-03-04T11:35:00;95884.00;;;2.87;56.71
24892;BME280;12954;50.688;10.908;2023-03-04T11:37:34;95876.16;;;2.73;56.89
24892;BME280;12954;50.688;10.908;2023-03-04T11:40:08;95871.34;;;2.82;56.50
24892;BME280;12954;50.688;10.908;2023-03-04T11:42:39;95876.00;;;2.87;56.49
24892;BME280;12954;50.688;10.908;2023-03-04T11:45:10;95869.50;;;2.83;56.75
24892;BME280;12954;50.688;10.908;2023-03-04T11:47:57;95867.03;;;2.81;56.53
24892;BME280;12954;50.688;10.908;2023-03-04T11:50:29;95857.88;;;2.77;56.65
24892;BME280;12954;50.688;10.908;2023-03-04T11:53:02;95869.41;;;2.89;56.49
24892;BME280;12954;50.688;10.908;2023-03-04T11:55:37;95860.59;;;2.89;56.69
24892;BME280;12954;50.688;10.908;2023-03-04T11:58:15;95861.72;;;2.81;56.44
24892;BME280;12954;50.688;10.908;2023-03-04T12:00:47;95862.31;;;2.83;56.72
24892;BME280;12954;50.688;10.908;2023-03-04T12:06:08;95856.19;;;3.12;56.08
24892;BME280;12954;50.688;10.908;2023-03-04T12:08:42;95844.63;;;2.89;56.18
24892;BME280;12954;50.688;10.908;2023-03-04T12:11:15;95849.69;;;2.90;56.31
24892;BME280;12954;50.688;10.908;2023-03-04T12:13:54;95841.88;;;2.95;55.94
24892;BME280;12954;50.688;10.908;2023-03-04T12:16:28;95838.59;;;2.93;56.38
24892;BME280;12954;50.688;10.908;2023-03-04T12:19:03;95835.94;;;2.93;56.26
24892;BME280;12954;50.688;10.908;2023-03-04T12:24:29;95836.69;;;2.82;56.44
24892;BME280;12954;50.688;10.908;2023-03-04T12:27:01;95829.72;;;2.81;56.74
24892;BME280;12954;50.688;10.908;2023-03-04T12:29:35;95830.66;;;2.75;56.52
24892;BME280;12954;50.688;10.908;2023-03-04T12:32:08;95833.38;;;2.87;56.42
24892;BME280;12954;50.688;10.908;2023-03-04T12:34:45;95822.16;;;2.96;56.43
24892;BME280;12954;50.688;10.908;2023-03-04T12:40:14;95818.84;;;3.01;56.20
24892;BME280;12954;50.688;10.908;2023-03-04T12:42:50;95818.91;;;2.94;56.34
24892;BME280;12954;50.688;10.908;2023-03-04T12:45:26;95827.47;;;2.96;55.90
24892;BME280;12954;50.688;10.908;2023-03-04T12:47:59;95823.50;;;2.87;56.39
24892;BME280;12954;50.688;10.908;2023-03-04T12:50:35;95821.56;;;2.94;56.16
24892;BME280;12954;50.688;10.908;2023-03-04T12:53:10;95817.66;;;2.97;56.14
24892;BME280;12954;50.688;10.908;2023-03-04T12:55:41;95822.06;;;3.03;56.03
24892;BME280;12954;50.688;10.908;2023-03-04T12:58:12;95814.19;;;3.08;55.98
24892;BME280;12954;50.688;10.908;2023-03-04T13:00:52;95818.00;;;3.00;56.37
24892;BME280;12954;50.688;10.908;2023-03-04T13:03:23;95814.19;;;3.08;55.83
24892;BME280;12954;50.688;10.908;2023-03-04T13:08:50;95801.75;;;2.90;56.17
24892;BME280;12954;50.688;10.908;2023-03-04T13:14:21;95803.56;;;2.78;56.73
24892;BME280;12954;50.688;10.908;2023-03-04T13:16:50;95806.09;;;2.73;56.36
24892;BME280;12954;50.688;10.908;2023-03-04T13:24:48;95802.06;;;2.82;56.74
24892;BME280;12954;50.688;10.908;2023-03-04T13:30:08;95788.91;;;2.99;56.01
24892;BME280;12954;50.688;10.908;2023-03-04T13:32:57;95787.59;;;2.78;56.67